createdAt,value
2016-01-23T00:00:20.131Z,0
2016-01-23T00:01:20.197Z,0
2016-01-23T00:02:20.232Z,0
2016-01-23T00:03:20.312Z,0
2016-01-23T00:04:20.347Z,0
2016-01-23T00:05:20.444Z,0
2016-01-23T00:06:20.510Z,0
2016-01-23T00:07:20.514Z,0
2016-01-23T00:08:20.567Z,0
2016-01-23T00:09:20.757Z,0
2016-01-23T00:10:20.666Z,0
2016-01-23T00:11:20.733Z,0
2016-01-23T00:12:20.783Z,0
2016-01-23T00:13:20.851Z,0
2016-01-23T00:14:20.900Z,0
2016-01-23T00:15:20.952Z,0
2016-01-23T00:16:21.001Z,0
2016-01-23T00:17:21.069Z,0
2016-01-23T00:18:21.138Z,0
2016-01-23T00:19:21.177Z,0
2016-01-23T00:20:21.217Z,0
2016-01-23T00:21:21.282Z,0
2016-01-23T00:22:21.333Z,0
2016-01-23T00:23:21.384Z,0
2016-01-23T00:24:21.450Z,0
2016-01-23T00:25:21.483Z,0
2016-01-23T00:26:21.569Z,4
2016-01-23T00:27:21.606Z,4
2016-01-23T00:28:21.672Z,0
2016-01-23T00:29:21.707Z,0
2016-01-23T00:30:21.764Z,0
2016-01-23T00:31:21.830Z,0
2016-01-23T00:32:21.943Z,0
2016-01-23T00:33:21.930Z,0
2016-01-23T00:34:21.997Z,0
2016-01-23T00:35:22.047Z,0
2016-01-23T00:36:22.113Z,0
2016-01-23T00:37:22.163Z,0
2016-01-23T00:38:22.215Z,0
2016-01-23T00:39:22.268Z,0
2016-01-23T00:40:22.318Z,0
2016-01-23T00:41:22.384Z,0
2016-01-23T00:42:22.433Z,0
2016-01-23T00:43:22.484Z,0
2016-01-23T00:44:22.533Z,0
2016-01-23T00:45:22.428Z,0
2016-01-23T00:46:22.696Z,0
2016-01-23T00:47:22.700Z,0
2016-01-23T00:48:22.750Z,0
2016-01-23T00:49:22.834Z,0
2016-01-23T00:50:22.868Z,0
2016-01-23T00:51:22.921Z,0
2016-01-23T00:52:22.985Z,0
2016-01-23T00:53:23.034Z,0
2016-01-23T00:54:23.081Z,0
2016-01-23T00:55:23.166Z,0
2016-01-23T00:56:23.200Z,0
2016-01-23T00:57:23.250Z,0
2016-01-23T00:58:23.301Z,0
2016-01-23T00:59:23.399Z,0
2016-01-23T01:00:23.417Z,0
2016-01-23T01:01:23.484Z,0
2016-01-23T01:02:23.519Z,0
2016-01-23T01:03:23.584Z,0
2016-01-23T01:04:23.618Z,0
2016-01-23T01:05:23.699Z,0
2016-01-23T01:06:23.733Z,0
2016-01-23T01:07:23.802Z,0
2016-01-23T01:08:23.853Z,0
2016-01-23T01:09:23.919Z,0
2016-01-23T01:10:23.957Z,0
2016-01-23T01:11:24.022Z,0
2016-01-23T01:12:24.073Z,0
2016-01-23T01:13:24.126Z,0
2016-01-23T01:14:24.192Z,0
2016-01-23T01:15:24.242Z,0
2016-01-23T01:16:24.292Z,0
2016-01-23T01:17:24.358Z,0
2016-01-23T01:18:24.393Z,0
2016-01-23T01:19:24.459Z,0
2016-01-23T01:20:24.509Z,0
2016-01-23T01:21:24.576Z,0
2016-01-23T01:22:24.626Z,0
2016-01-23T01:23:24.695Z,0
2016-01-23T01:24:24.745Z,0
2016-01-23T01:25:24.796Z,0
2016-01-23T01:26:24.847Z,0
2016-01-23T01:27:24.896Z,0
2016-01-23T01:28:24.979Z,0
2016-01-23T01:29:25.013Z,0
2016-01-23T01:30:25.064Z,0
2016-01-23T01:31:25.115Z,0
2016-01-23T01:32:25.180Z,0
2016-01-23T01:33:25.232Z,0
2016-01-23T01:34:25.296Z,0
2016-01-23T01:35:25.332Z,0
2016-01-23T01:36:25.398Z,0
2016-01-23T01:37:25.450Z,0
2016-01-23T01:38:25.501Z,0
2016-01-23T01:39:25.552Z,0
2016-01-23T01:40:25.618Z,0
2016-01-23T01:41:25.670Z,0
2016-01-23T01:42:25.724Z,0
2016-01-23T01:43:25.773Z,0
2016-01-23T01:44:26.014Z,0
2016-01-23T01:45:25.891Z,0
2016-01-23T01:46:25.957Z,0
2016-01-23T01:47:26.007Z,0
2016-01-23T01:48:26.054Z,0
2016-01-23T01:49:26.106Z,0
2016-01-23T01:50:26.218Z,0
2016-01-23T01:51:26.225Z,0
2016-01-23T01:52:26.261Z,0
2016-01-23T01:53:26.328Z,0
2016-01-23T01:54:26.393Z,0
2016-01-23T01:55:26.436Z,0
2016-01-23T01:56:26.503Z,0
2016-01-23T01:57:26.536Z,0
2016-01-23T01:58:26.602Z,0
2016-01-23T01:59:26.668Z,0
2016-01-23T02:00:26.704Z,0
2016-01-23T02:01:26.771Z,0
2016-01-23T02:02:26.665Z,0
2016-01-23T02:03:26.871Z,0
2016-01-23T02:04:26.923Z,0
2016-01-23T02:05:26.990Z,0
2016-01-23T02:06:27.057Z,0
2016-01-23T02:07:27.122Z,0
2016-01-23T02:08:27.158Z,0
2016-01-23T02:09:27.224Z,0
2016-01-23T02:10:27.261Z,0
2016-01-23T02:11:27.317Z,0
2016-01-23T02:12:27.383Z,0
2016-01-23T02:13:27.419Z,0
2016-01-23T02:14:27.503Z,0
2016-01-23T02:15:27.554Z,0
2016-01-23T02:16:27.588Z,0
2016-01-23T02:17:27.655Z,0
2016-01-23T02:18:27.704Z,0
2016-01-23T02:19:27.770Z,0
2016-01-23T02:20:27.823Z,0
2016-01-23T02:21:28.248Z,0
2016-01-23T02:22:27.923Z,0
2016-01-23T02:23:27.973Z,0
2016-01-23T02:24:28.043Z,0
2016-01-23T02:25:28.093Z,0
2016-01-23T02:26:28.162Z,0
2016-01-23T02:27:28.245Z,0
2016-01-23T02:28:28.265Z,0
2016-01-23T02:29:28.330Z,0
2016-01-23T02:30:28.379Z,0
2016-01-23T02:31:28.414Z,0
2016-01-23T02:32:28.481Z,0
2016-01-23T02:33:28.547Z,0
2016-01-23T02:34:28.597Z,0
2016-01-23T02:35:28.635Z,0
2016-01-23T02:36:28.703Z,0
2016-01-23T02:37:28.753Z,0
2016-01-23T02:38:28.837Z,0
2016-01-23T02:39:28.871Z,0
2016-01-23T02:40:28.921Z,0
2016-01-23T02:41:29.036Z,0
2016-01-23T02:42:29.040Z,0
2016-01-23T02:43:29.090Z,0
2016-01-23T02:44:29.157Z,0
2016-01-23T02:45:29.210Z,0
2016-01-23T02:46:29.260Z,0
2016-01-23T02:47:29.310Z,0
2016-01-23T02:48:29.392Z,0
2016-01-23T02:49:29.412Z,0
2016-01-23T02:50:29.480Z,0
2016-01-23T02:51:29.530Z,0
2016-01-23T02:52:29.595Z,0
2016-01-23T02:53:29.647Z,0
2016-01-23T02:54:29.713Z,0
2016-01-23T02:55:29.749Z,0
2016-01-23T02:56:29.799Z,0
2016-01-23T02:57:29.865Z,0
2016-01-23T02:58:29.932Z,0
2016-01-23T02:59:29.967Z,0
2016-01-23T03:00:30.033Z,0
2016-01-23T03:01:30.084Z,0
2016-01-23T03:02:30.134Z,0
2016-01-23T03:03:30.189Z,0
2016-01-23T03:04:30.239Z,0
2016-01-23T03:05:30.322Z,0
2016-01-23T03:06:30.357Z,0
2016-01-23T03:07:30.408Z,0
2016-01-23T03:08:30.474Z,0
2016-01-23T03:09:30.524Z,0
2016-01-23T03:10:30.576Z,0
2016-01-23T03:11:30.627Z,0
2016-01-23T03:12:30.694Z,0
2016-01-23T03:13:30.761Z,0
2016-01-23T03:14:30.811Z,0
2016-01-23T03:15:30.849Z,0
2016-01-23T03:16:30.914Z,0
2016-01-23T03:17:32.152Z,0
2016-01-23T03:18:31.005Z,0
2016-01-23T03:19:31.088Z,0
2016-01-23T03:20:31.123Z,0
2016-01-23T03:21:31.188Z,0
2016-01-23T03:22:31.225Z,0
2016-01-23T03:23:31.291Z,0
2016-01-23T03:24:31.371Z,0
2016-01-23T03:25:31.406Z,0
2016-01-23T03:26:31.461Z,0
2016-01-23T03:27:31.543Z,0
2016-01-23T03:28:31.563Z,0
2016-01-23T03:29:31.629Z,0
2016-01-23T03:30:31.683Z,0
2016-01-23T03:31:31.733Z,0
2016-01-23T03:32:31.815Z,0
2016-01-23T03:33:32.147Z,0
2016-01-23T03:34:31.901Z,0
2016-01-23T03:35:31.996Z,0
2016-01-23T03:36:32.017Z,0
2016-01-23T03:37:32.066Z,0
2016-01-23T03:38:32.132Z,0
2016-01-23T03:39:32.182Z,0
2016-01-23T03:40:32.233Z,0
2016-01-23T03:41:32.284Z,0
2016-01-23T03:42:32.368Z,0
2016-01-23T03:43:32.404Z,0
2016-01-23T03:44:32.471Z,0
2016-01-23T03:45:32.520Z,0
2016-01-23T03:46:32.570Z,0
2016-01-23T03:47:32.622Z,0
2016-01-23T03:48:32.677Z,0
2016-01-23T03:49:32.729Z,0
2016-01-23T03:50:33.030Z,0
2016-01-23T03:51:32.864Z,0
2016-01-23T03:52:32.898Z,0
2016-01-23T03:53:32.995Z,0
2016-01-23T03:54:33.039Z,0
2016-01-23T03:55:33.120Z,0
2016-01-23T03:56:33.171Z,0
2016-01-23T03:57:33.190Z,0
2016-01-23T03:58:33.239Z,0
2016-01-23T03:59:33.289Z,0
2016-01-23T04:00:33.371Z,0
2016-01-23T04:01:33.390Z,0
2016-01-23T04:02:33.471Z,0
2016-01-23T04:03:33.505Z,0
2016-01-23T04:04:33.587Z,0
2016-01-23T04:05:33.623Z,0
2016-01-23T04:06:33.688Z,0
2016-01-23T04:07:33.738Z,0
2016-01-23T04:08:33.803Z,0
2016-01-23T04:09:33.837Z,0
2016-01-23T04:10:33.904Z,0
2016-01-23T04:11:33.955Z,0
2016-01-23T04:12:34.021Z,0
2016-01-23T04:13:34.073Z,0
2016-01-23T04:14:34.124Z,0
2016-01-23T04:15:34.175Z,0
2016-01-23T04:16:34.240Z,0
2016-01-23T04:17:34.290Z,0
2016-01-23T04:18:34.340Z,0
2016-01-23T04:19:34.640Z,0
2016-01-23T04:20:34.471Z,0
2016-01-23T04:21:34.505Z,0
2016-01-23T04:22:34.573Z,0
2016-01-23T04:23:34.613Z,0
2016-01-23T04:24:34.679Z,0
2016-01-23T04:25:34.729Z,0
2016-01-23T04:26:34.779Z,0
2016-01-23T04:27:34.861Z,0
2016-01-23T04:28:34.914Z,0
2016-01-23T04:29:34.949Z,0
2016-01-23T04:30:35.013Z,0
2016-01-23T04:31:35.064Z,0
2016-01-23T04:32:35.114Z,0
2016-01-23T04:33:35.195Z,0
2016-01-23T04:34:35.245Z,0
2016-01-23T04:35:35.280Z,0
2016-01-23T04:36:35.347Z,0
2016-01-23T04:37:35.397Z,0
2016-01-23T04:38:35.478Z,0
2016-01-23T04:39:35.543Z,0
2016-01-23T04:40:35.625Z,0
2016-01-23T04:41:35.615Z,0
2016-01-23T04:42:35.680Z,0
2016-01-23T04:43:35.621Z,0
2016-01-23T04:44:35.780Z,0
2016-01-23T04:45:35.830Z,0
2016-01-23T04:46:35.912Z,0
2016-01-23T04:47:35.947Z,0
2016-01-23T04:48:36.013Z,0
2016-01-23T04:49:36.062Z,0
2016-01-23T04:50:36.127Z,0
2016-01-23T04:51:36.161Z,0
2016-01-23T04:52:36.247Z,0
2016-01-23T04:53:36.283Z,0
2016-01-23T04:54:36.364Z,0
2016-01-23T04:55:36.414Z,0
2016-01-23T04:56:36.464Z,0
2016-01-23T04:57:36.545Z,0
2016-01-23T04:58:36.615Z,0
2016-01-23T04:59:36.618Z,0
2016-01-23T05:00:36.701Z,0
2016-01-23T05:01:36.734Z,0
2016-01-23T05:02:36.785Z,0
2016-01-23T05:03:36.835Z,0
2016-01-23T05:04:36.899Z,0
2016-01-23T05:05:37.451Z,0
2016-01-23T05:06:37.002Z,0
2016-01-23T05:07:37.068Z,0
2016-01-23T05:08:37.101Z,0
2016-01-23T05:09:37.187Z,0
2016-01-23T05:10:37.237Z,0
2016-01-23T05:11:37.286Z,0
2016-01-23T05:12:37.353Z,0
2016-01-23T05:13:37.404Z,0
2016-01-23T05:14:37.738Z,0
2016-01-23T05:15:37.506Z,0
2016-01-23T05:16:37.556Z,0
2016-01-23T05:17:37.638Z,0
2016-01-23T05:18:37.686Z,0
2016-01-23T05:19:37.723Z,0
2016-01-23T05:20:37.788Z,0
2016-01-23T05:21:37.841Z,0
2016-01-23T05:22:37.905Z,0
2016-01-23T05:23:37.957Z,0
2016-01-23T05:24:38.023Z,0
2016-01-23T05:25:38.057Z,0
2016-01-23T05:26:38.123Z,0
2016-01-23T05:27:38.160Z,0
2016-01-23T05:28:38.256Z,0
2016-01-23T05:29:38.276Z,0
2016-01-23T05:30:38.340Z,0
2016-01-23T05:31:38.409Z,0
2016-01-23T05:32:38.458Z,0
2016-01-23T05:33:38.494Z,0
2016-01-23T05:34:38.559Z,0
2016-01-23T05:35:38.611Z,0
2016-01-23T05:36:38.678Z,0
2016-01-23T05:37:38.728Z,0
2016-01-23T05:38:38.809Z,0
2016-01-23T05:39:38.858Z,0
2016-01-23T05:40:38.893Z,0
2016-01-23T05:41:38.974Z,0
2016-01-23T05:42:38.988Z,0
2016-01-23T05:43:39.176Z,0
2016-01-23T05:44:38.967Z,0
2016-01-23T05:45:48.019Z,0
2016-01-23T05:46:39.194Z,0
2016-01-23T05:47:39.275Z,0
2016-01-23T05:48:39.310Z,0
2016-01-23T05:49:39.439Z,0
2016-01-23T05:50:39.677Z,0
2016-01-23T05:51:39.494Z,0
2016-01-23T05:52:39.560Z,0
2016-01-23T05:53:39.609Z,0
2016-01-23T05:54:39.742Z,0
2016-01-23T05:55:39.730Z,0
2016-01-23T05:56:39.769Z,0
2016-01-23T05:57:39.834Z,0
2016-01-23T05:58:39.885Z,0
2016-01-23T05:59:40.060Z,0
2016-01-23T06:00:39.985Z,0
2016-01-23T06:01:40.050Z,0
2016-01-23T06:02:40.102Z,0
2016-01-23T06:03:40.141Z,0
2016-01-23T06:04:40.227Z,0
2016-01-23T06:05:40.262Z,0
2016-01-23T06:06:40.327Z,0
2016-01-23T06:07:40.219Z,0
2016-01-23T06:08:40.425Z,0
2016-01-23T06:09:40.491Z,0
2016-01-23T06:10:40.527Z,0
2016-01-23T06:11:40.591Z,0
2016-01-23T06:12:40.659Z,0
2016-01-23T06:13:40.710Z,0
2016-01-23T06:14:40.759Z,0
2016-01-23T06:15:40.826Z,0
2016-01-23T06:16:40.876Z,0
2016-01-23T06:17:40.925Z,0
2016-01-23T06:18:40.991Z,0
2016-01-23T06:19:41.043Z,0
2016-01-23T06:20:41.107Z,0
2016-01-23T06:21:41.141Z,0
2016-01-23T06:22:41.226Z,0
2016-01-23T06:23:41.277Z,0
2016-01-23T06:24:41.313Z,0
2016-01-23T06:25:41.361Z,0
2016-01-23T06:26:41.429Z,0
2016-01-23T06:27:41.478Z,0
2016-01-23T06:28:41.559Z,0
2016-01-23T06:29:41.594Z,0
2016-01-23T06:30:41.662Z,0
2016-01-23T06:31:41.727Z,0
2016-01-23T06:32:41.761Z,0
2016-01-23T06:33:41.814Z,0
2016-01-23T06:34:41.865Z,0
2016-01-23T06:35:41.933Z,0
2016-01-23T06:36:41.986Z,0
2016-01-23T06:37:42.052Z,0
2016-01-23T06:38:42.086Z,0
2016-01-23T06:39:42.169Z,0
2016-01-23T06:40:42.204Z,0
2016-01-23T06:41:42.270Z,0
2016-01-23T06:42:42.303Z,0
2016-01-23T06:43:42.386Z,0
2016-01-23T06:44:42.439Z,0
2016-01-23T06:45:42.489Z,0
2016-01-23T06:46:42.555Z,0
2016-01-23T06:47:42.588Z,0
2016-01-23T06:48:42.641Z,0
2016-01-23T06:49:42.757Z,0
2016-01-23T06:50:42.762Z,0
2016-01-23T06:51:42.813Z,0
2016-01-23T06:52:42.880Z,0
2016-01-23T06:53:42.916Z,0
2016-01-23T06:54:42.983Z,0
2016-01-23T06:55:43.049Z,0
2016-01-23T06:56:43.098Z,0
2016-01-23T06:57:43.180Z,0
2016-01-23T06:58:43.213Z,0
2016-01-23T06:59:43.264Z,0
2016-01-23T07:00:43.331Z,0
2016-01-23T07:01:43.380Z,0
2016-01-23T07:02:43.430Z,0
2016-01-23T07:03:43.495Z,0
2016-01-23T07:04:43.538Z,0
2016-01-23T07:05:43.631Z,0
2016-01-23T07:06:43.643Z,0
2016-01-23T07:07:43.692Z,0
2016-01-23T07:08:43.738Z,0
2016-01-23T07:09:43.785Z,0
2016-01-23T07:10:43.849Z,0
2016-01-23T07:11:43.896Z,0
2016-01-23T07:12:44.226Z,0
2016-01-23T07:13:43.995Z,0
2016-01-23T07:14:44.061Z,0
2016-01-23T07:15:44.110Z,0
2016-01-23T07:16:44.177Z,0
2016-01-23T07:17:44.210Z,0
2016-01-23T07:18:44.294Z,0
2016-01-23T07:19:44.328Z,0
2016-01-23T07:20:44.395Z,0
2016-01-23T07:21:44.462Z,0
2016-01-23T07:22:44.500Z,0
2016-01-23T07:23:44.549Z,0
2016-01-23T07:24:44.614Z,0
2016-01-23T07:25:44.665Z,0
2016-01-23T07:26:44.731Z,0
2016-01-23T07:27:44.767Z,0
2016-01-23T07:28:44.834Z,0
2016-01-23T07:29:44.900Z,0
2016-01-23T07:30:44.810Z,0
2016-01-23T07:31:44.999Z,0
2016-01-23T07:32:45.068Z,0
2016-01-23T07:33:45.118Z,0
2016-01-23T07:34:45.169Z,0
2016-01-23T07:35:45.235Z,0
2016-01-23T07:36:45.284Z,0
2016-01-23T07:37:45.334Z,0
2016-01-23T07:38:45.385Z,0
2016-01-23T07:39:45.451Z,0
2016-01-23T07:40:45.486Z,0
2016-01-23T07:41:45.553Z,0
2016-01-23T07:42:45.634Z,0
2016-01-23T07:43:45.653Z,0
2016-01-23T07:44:45.751Z,0
2016-01-23T07:45:45.771Z,0
2016-01-23T07:46:45.837Z,0
2016-01-23T07:47:45.888Z,0
2016-01-23T07:48:45.940Z,0
2016-01-23T07:49:45.851Z,0
2016-01-23T07:50:46.057Z,0
2016-01-23T07:51:46.123Z,0
2016-01-23T07:52:46.173Z,0
2016-01-23T07:53:46.221Z,0
2016-01-23T07:54:46.275Z,0
2016-01-23T07:55:46.340Z,0
2016-01-23T07:56:46.393Z,0
2016-01-23T07:57:46.443Z,0
2016-01-23T07:58:46.509Z,0
2016-01-23T07:59:46.559Z,0
2016-01-23T08:00:46.639Z,0
2016-01-23T08:01:46.673Z,0
2016-01-23T08:02:46.739Z,0
2016-01-23T08:03:46.807Z,0
2016-01-23T08:04:46.841Z,0
2016-01-23T08:05:46.892Z,0
2016-01-23T08:06:47.051Z,0
2016-01-23T08:07:47.008Z,0
2016-01-23T08:08:47.184Z,0
2016-01-23T08:09:47.126Z,0
2016-01-23T08:10:47.161Z,0
2016-01-23T08:11:47.212Z,0
2016-01-23T08:12:47.293Z,0
2016-01-23T08:13:47.187Z,0
2016-01-23T08:14:47.408Z,0
2016-01-23T08:15:47.444Z,0
2016-01-23T08:16:47.510Z,4
2016-01-23T08:17:47.561Z,0
2016-01-23T08:18:47.616Z,0
2016-01-23T08:19:47.665Z,0
2016-01-23T08:20:47.730Z,0
2016-01-23T08:21:47.780Z,0
2016-01-23T08:22:47.846Z,0
2016-01-23T08:23:47.740Z,0
2016-01-23T08:24:47.947Z,0
2016-01-23T08:25:47.999Z,0
2016-01-23T08:26:47.907Z,0
2016-01-23T08:27:48.113Z,0
2016-01-23T08:28:48.179Z,0
2016-01-23T08:29:48.232Z,0
2016-01-23T08:30:48.282Z,0
2016-01-23T08:31:48.332Z,0
2016-01-23T08:32:48.399Z,0
2016-01-23T08:33:48.452Z,4
2016-01-23T08:34:48.517Z,0
2016-01-23T08:35:48.566Z,0
2016-01-23T08:36:48.617Z,0
2016-01-23T08:37:48.683Z,0
2016-01-23T08:38:48.748Z,0
2016-01-23T08:39:48.784Z,0
2016-01-23T08:40:48.833Z,0
2016-01-23T08:41:48.884Z,0
2016-01-23T08:42:48.949Z,0
2016-01-23T08:43:49.015Z,0
2016-01-23T08:44:49.066Z,0
2016-01-23T08:45:49.147Z,4
2016-01-23T08:46:49.439Z,0
2016-01-23T08:47:49.224Z,4
2016-01-23T08:48:49.305Z,0
2016-01-23T08:49:49.370Z,0
2016-01-23T08:50:49.465Z,0
2016-01-23T08:51:49.486Z,4
2016-01-23T08:52:49.551Z,0
2016-01-23T08:53:49.591Z,0
2016-01-23T08:54:49.674Z,0
2016-01-23T08:55:49.676Z,0
2016-01-23T08:56:50.179Z,4
2016-01-23T08:57:50.587Z,4
2016-01-23T08:58:50.000Z,4
2016-01-23T08:59:50.034Z,4
2016-01-23T09:00:50.397Z,4
2016-01-23T09:01:50.791Z,4
2016-01-23T09:02:50.075Z,4
2016-01-23T09:03:50.391Z,4
2016-01-23T09:04:50.472Z,0
2016-01-23T09:05:50.541Z,4
2016-01-23T09:06:51.060Z,4
2016-01-23T09:07:50.360Z,180
2016-01-23T09:08:50.425Z,164
2016-01-23T09:09:50.446Z,132
2016-01-23T09:10:50.541Z,88
2016-01-23T09:11:50.559Z,84
2016-01-23T09:12:50.656Z,92
2016-01-23T09:13:50.691Z,84
2016-01-23T09:14:50.730Z,64
2016-01-23T09:15:50.787Z,96
2016-01-23T09:16:50.854Z,64
2016-01-23T09:17:50.904Z,52
2016-01-23T09:18:50.953Z,44
2016-01-23T09:19:50.996Z,52
2016-01-23T09:20:51.061Z,68
2016-01-23T09:21:51.128Z,56
2016-01-23T09:22:51.165Z,52
2016-01-23T09:23:51.234Z,68
2016-01-23T09:24:51.300Z,96
2016-01-23T09:25:51.348Z,164
2016-01-23T09:26:51.401Z,76
2016-01-23T09:27:51.452Z,52
2016-01-23T09:28:51.502Z,88
2016-01-23T09:29:51.553Z,116
2016-01-23T09:30:51.618Z,68
2016-01-23T09:31:51.684Z,76
2016-01-23T09:32:51.718Z,84
2016-01-23T09:33:51.784Z,100
2016-01-23T09:34:51.821Z,100
2016-01-23T09:35:51.905Z,76
2016-01-23T09:36:51.940Z,40
2016-01-23T09:37:52.005Z,52
2016-01-23T09:38:52.040Z,72
2016-01-23T09:39:52.104Z,120
2016-01-23T09:40:52.155Z,128
2016-01-23T09:41:52.222Z,68
2016-01-23T09:42:52.273Z,40
2016-01-23T09:43:52.353Z,44
2016-01-23T09:44:52.374Z,68
2016-01-23T09:45:52.440Z,108
2016-01-23T09:46:52.475Z,128
2016-01-23T09:47:52.555Z,84
2016-01-23T09:48:52.590Z,44
2016-01-23T09:49:52.656Z,48
2016-01-23T09:50:52.706Z,60
2016-01-23T09:51:52.757Z,56
2016-01-23T09:52:52.808Z,52
2016-01-23T09:53:52.874Z,48
2016-01-23T09:54:52.907Z,52
2016-01-23T09:55:53.006Z,56
2016-01-23T09:56:53.025Z,48
2016-01-23T09:57:53.093Z,48
2016-01-23T09:58:53.142Z,40
2016-01-23T09:59:53.208Z,40
2016-01-23T10:00:53.258Z,40
2016-01-23T10:01:53.308Z,36
2016-01-23T10:02:53.233Z,36
2016-01-23T10:03:53.424Z,36
2016-01-23T10:04:53.475Z,32
2016-01-23T10:05:53.525Z,36
2016-01-23T10:06:53.576Z,40
2016-01-23T10:07:53.641Z,44
2016-01-23T10:08:53.690Z,40
2016-01-23T10:09:53.723Z,44
2016-01-23T10:10:53.790Z,40
2016-01-23T10:11:53.840Z,40
2016-01-23T10:12:53.890Z,40
2016-01-23T10:13:53.960Z,32
2016-01-23T10:14:54.009Z,40
2016-01-23T10:15:54.075Z,36
2016-01-23T10:16:54.128Z,20
2016-01-23T10:17:54.161Z,52
2016-01-23T10:18:54.243Z,48
2016-01-23T10:19:54.278Z,48
2016-01-23T10:20:54.332Z,32
2016-01-23T10:21:54.384Z,28
2016-01-23T10:22:54.451Z,28
2016-01-23T10:23:54.485Z,28
2016-01-23T10:24:54.550Z,32
2016-01-23T10:25:54.601Z,40
2016-01-23T10:26:54.654Z,44
2016-01-23T10:27:54.705Z,36
2016-01-23T10:28:54.802Z,32
2016-01-23T10:29:54.850Z,40
2016-01-23T10:30:54.887Z,40
2016-01-23T10:31:55.610Z,40
2016-01-23T10:32:55.019Z,52
2016-01-23T10:33:55.022Z,116
2016-01-23T10:34:55.121Z,76
2016-01-23T10:35:55.171Z,76
2016-01-23T10:36:55.206Z,68
2016-01-23T10:37:55.600Z,60
2016-01-23T10:38:55.295Z,48
2016-01-23T10:39:55.361Z,32
2016-01-23T10:40:55.459Z,36
2016-01-23T10:41:55.524Z,48
2016-01-23T10:42:55.544Z,68
2016-01-23T10:43:55.562Z,80
2016-01-23T10:44:55.645Z,36
2016-01-23T10:45:55.728Z,36
2016-01-23T10:46:55.733Z,36
2016-01-23T10:47:55.800Z,36
2016-01-23T10:48:55.977Z,32
2016-01-23T10:49:55.902Z,28
2016-01-23T10:50:55.951Z,28
2016-01-23T10:51:56.205Z,28
2016-01-23T10:52:56.067Z,32
2016-01-23T10:53:56.118Z,36
2016-01-23T10:54:56.185Z,32
2016-01-23T10:55:56.250Z,32
2016-01-23T10:56:56.302Z,60
2016-01-23T10:57:56.339Z,64
2016-01-23T10:58:56.419Z,56
2016-01-23T10:59:56.469Z,60
2016-01-23T11:00:56.504Z,60
2016-01-23T11:01:56.585Z,56
2016-01-23T11:02:56.620Z,52
2016-01-23T11:03:56.672Z,48
2016-01-23T11:04:56.723Z,24
2016-01-23T11:05:56.790Z,28
2016-01-23T11:06:56.823Z,32
2016-01-23T11:07:56.891Z,36
2016-01-23T11:08:56.943Z,32
2016-01-23T11:09:57.011Z,24
2016-01-23T11:10:57.047Z,24
2016-01-23T11:11:57.114Z,24
2016-01-23T11:12:57.165Z,24
2016-01-23T11:13:57.230Z,20
2016-01-23T11:14:57.263Z,20
2016-01-23T11:15:57.331Z,24
2016-01-23T11:16:57.382Z,24
2016-01-23T11:17:57.759Z,24
2016-01-23T11:18:57.497Z,24
2016-01-23T11:19:57.549Z,28
2016-01-23T11:20:57.975Z,36
2016-01-23T11:21:57.728Z,40
2016-01-23T11:22:57.995Z,36
2016-01-23T11:23:57.782Z,40
2016-01-23T11:24:57.832Z,44
2016-01-23T11:25:58.072Z,28
2016-01-23T11:26:57.967Z,28
2016-01-23T11:27:58.001Z,28
2016-01-23T11:28:58.050Z,28
2016-01-23T11:29:58.100Z,24
2016-01-23T11:30:58.183Z,24
2016-01-23T11:31:58.204Z,20
2016-01-23T11:32:58.270Z,24
2016-01-23T11:33:58.337Z,24
2016-01-23T11:34:58.372Z,24
2016-01-23T11:35:58.453Z,24
2016-01-23T11:36:58.487Z,28
2016-01-23T11:37:58.539Z,24
2016-01-23T11:38:58.606Z,28
2016-01-23T11:39:58.655Z,28
2016-01-23T11:40:58.722Z,24
2016-01-23T11:41:58.788Z,24
2016-01-23T11:42:58.822Z,28
2016-01-23T11:43:58.925Z,32
2016-01-23T11:44:58.944Z,32
2016-01-23T11:45:58.980Z,32
2016-01-23T11:46:58.890Z,32
2016-01-23T11:47:59.083Z,32
2016-01-23T11:48:59.195Z,32
2016-01-23T11:49:59.214Z,36
2016-01-23T11:50:59.263Z,36
2016-01-23T11:51:59.328Z,36
2016-01-23T11:52:59.375Z,36
2016-01-23T11:53:59.911Z,36
2016-01-23T11:54:59.493Z,36
2016-01-23T11:55:59.543Z,36
2016-01-23T11:56:59.611Z,40
2016-01-23T11:57:59.660Z,44
2016-01-23T11:58:59.710Z,44
2016-01-23T11:59:59.778Z,48
2016-01-23T12:00:59.827Z,48
2016-01-23T12:01:59.878Z,40
2016-01-23T12:02:59.929Z,48
2016-01-23T12:03:59.996Z,60
2016-01-23T12:05:00.045Z,52
2016-01-23T12:06:00.095Z,40
2016-01-23T12:07:00.161Z,36
2016-01-23T12:08:00.198Z,36
2016-01-23T12:09:00.265Z,36
2016-01-23T12:10:00.300Z,40
2016-01-23T12:11:00.818Z,40
2016-01-23T12:12:00.431Z,40
2016-01-23T12:13:00.502Z,40
2016-01-23T12:14:00.569Z,36
2016-01-23T12:15:00.604Z,32
2016-01-23T12:16:00.637Z,32
2016-01-23T12:17:00.688Z,32
2016-01-23T12:18:00.757Z,32
2016-01-23T12:19:00.807Z,36
2016-01-23T12:20:00.872Z,32
2016-01-23T12:21:00.922Z,32
2016-01-23T12:22:00.971Z,28
2016-01-23T12:23:01.037Z,32
2016-01-23T12:24:01.087Z,36
2016-01-23T12:25:01.138Z,36
2016-01-23T12:26:01.188Z,36
2016-01-23T12:27:01.252Z,40
2016-01-23T12:28:01.305Z,32
2016-01-23T12:29:01.355Z,36
2016-01-23T12:30:01.422Z,36
2016-01-23T12:31:01.472Z,36
2016-01-23T12:32:01.522Z,32
2016-01-23T12:33:01.573Z,36
2016-01-23T12:34:01.642Z,40
2016-01-23T12:35:01.676Z,48
2016-01-23T12:36:01.742Z,52
2016-01-23T12:37:01.792Z,56
2016-01-23T12:38:01.858Z,60
2016-01-23T12:39:01.911Z,56
2016-01-23T12:40:01.962Z,56
2016-01-23T12:41:02.013Z,48
2016-01-23T12:42:02.066Z,48
2016-01-23T12:43:02.116Z,48
2016-01-23T12:44:02.184Z,40
2016-01-23T12:45:02.237Z,36
2016-01-23T12:46:02.290Z,36
2016-01-23T12:47:02.339Z,36
2016-01-23T12:48:02.405Z,32
2016-01-23T12:49:02.455Z,32
2016-01-23T12:50:02.508Z,32
2016-01-23T12:51:02.559Z,32
2016-01-23T12:52:02.625Z,36
2016-01-23T12:53:02.676Z,32
2016-01-23T12:54:02.727Z,28
2016-01-23T12:55:02.793Z,32
2016-01-23T12:56:02.843Z,28
2016-01-23T12:57:02.908Z,32
2016-01-23T12:58:02.946Z,28
2016-01-23T12:59:03.011Z,28
2016-01-23T13:00:03.049Z,32
2016-01-23T13:01:03.116Z,32
2016-01-23T13:02:03.167Z,28
2016-01-23T13:03:03.216Z,28
2016-01-23T13:04:03.282Z,32
2016-01-23T13:05:03.332Z,24
2016-01-23T13:06:03.397Z,28
2016-01-23T13:07:03.448Z,28
2016-01-23T13:08:03.497Z,28
2016-01-23T13:09:03.566Z,24
2016-01-23T13:10:03.616Z,24
2016-01-23T13:11:03.682Z,24
2016-01-23T13:12:03.716Z,24
2016-01-23T13:13:03.782Z,28
2016-01-23T13:14:03.835Z,28
2016-01-23T13:15:03.871Z,28
2016-01-23T13:16:04.455Z,16
2016-01-23T13:17:04.271Z,16
2016-01-23T13:18:04.133Z,16
2016-01-23T13:19:04.121Z,20
2016-01-23T13:20:04.156Z,20
2016-01-23T13:21:04.255Z,20
2016-01-23T13:22:04.272Z,20
2016-01-23T13:23:04.321Z,16
2016-01-23T13:24:04.372Z,20
2016-01-23T13:25:04.441Z,20
2016-01-23T13:26:04.475Z,16
2016-01-23T13:27:04.604Z,20
2016-01-23T13:28:04.590Z,16
2016-01-23T13:29:04.640Z,20
2016-01-23T13:30:05.096Z,16
2016-01-23T13:31:04.759Z,16
2016-01-23T13:32:04.825Z,16
2016-01-23T13:33:04.953Z,12
2016-01-23T13:34:05.941Z,16
2016-01-23T13:35:05.288Z,12
2016-01-23T13:36:05.106Z,12
2016-01-23T13:37:05.095Z,12
2016-01-23T13:38:05.145Z,16
2016-01-23T13:39:05.272Z,12
2016-01-23T13:40:05.247Z,12
2016-01-23T13:41:05.313Z,12
2016-01-23T13:42:05.662Z,12
2016-01-23T13:43:05.446Z,16
2016-01-23T13:44:05.481Z,12
2016-01-23T13:45:05.031Z,12
2016-01-23T13:46:05.595Z,12
2016-01-23T13:47:05.646Z,12
2016-01-23T13:48:05.696Z,12
2016-01-23T13:49:05.747Z,12
2016-01-23T13:50:05.797Z,12
2016-01-23T13:51:05.871Z,12
2016-01-23T13:52:06.171Z,12
2016-01-23T13:53:06.174Z,12
2016-01-23T13:54:06.475Z,8
2016-01-23T13:55:06.089Z,8
2016-01-23T13:56:06.138Z,8
2016-01-23T13:57:06.219Z,8
2016-01-23T13:58:06.239Z,8
2016-01-23T13:59:06.288Z,8
2016-01-23T14:00:06.292Z,12
2016-01-23T14:01:06.405Z,8
2016-01-23T14:02:06.455Z,12
2016-01-23T14:03:06.597Z,8
2016-01-23T14:04:06.569Z,8
2016-01-23T14:05:06.636Z,8
2016-01-23T14:06:06.686Z,8
2016-01-23T14:07:06.735Z,8
2016-01-23T14:08:06.958Z,4
2016-01-23T14:09:06.853Z,4
2016-01-23T14:10:06.902Z,8
2016-01-23T14:11:07.315Z,4
2016-01-23T14:12:07.075Z,8
2016-01-23T14:13:07.096Z,8
2016-01-23T14:14:07.210Z,8
2016-01-23T14:15:07.169Z,8
2016-01-23T14:16:07.235Z,4
2016-01-23T14:17:07.285Z,8
2016-01-23T14:18:06.272Z,8
2016-01-23T14:19:07.387Z,8
2016-01-23T14:20:07.470Z,8
2016-01-23T14:21:07.506Z,4
2016-01-23T14:22:07.555Z,8
2016-01-23T14:23:07.620Z,16
2016-01-23T14:24:07.670Z,12
2016-01-23T14:25:07.769Z,16
2016-01-23T14:26:07.850Z,12
2016-01-23T14:27:07.868Z,16
2016-01-23T14:28:09.139Z,16
2016-01-23T14:29:08.001Z,12
2016-01-23T14:30:08.052Z,12
2016-01-23T14:31:08.055Z,12
2016-01-23T14:32:08.309Z,12
2016-01-23T14:33:08.187Z,12
2016-01-23T14:34:08.221Z,12
2016-01-23T14:35:08.427Z,8
2016-01-23T14:36:08.320Z,8